Observation data for Northwest Lubbock on 05/24/2019      Previous  Date  Next       Current Mesonet Observations  Soil Data  Daily Summary Page  Observations in Plain Language
KLBW 240500Z 33009G14KT 18/11 A2997 RMK A01 T01810105  RH  063%=      5-min Rain = 0
KLBW 240505Z 32012KT 17/11 A2998 RMK A01 T01730112  RH  070%=      5-min Rain = 0.01
KLBW 240510Z 31009G14KT 16/12 A2998 RMK A01 T01640118  RH  077%=      5-min Rain = 0
KLBW 240515Z 31010KT 16/12 A2998 RMK A01 T01570123  RH  083%=      5-min Rain = 0.01
KLBW 240520Z 31010G16KT 15/12 A2998 RMK A01 T01540123  RH  085%=      5-min Rain = 0
KLBW 240525Z 30006KT 15/13 A2998 RMK A01 T01520125  RH  087%=      5-min Rain = 0
KLBW 240530Z 30013G19KT 16/13 A2998 RMK A01 T01550131  RH  089%=      5-min Rain = 0
KLBW 240535Z 31015G22KT 16/13 A2997 RMK A01 T01580134  RH  089%=      5-min Rain = 0
KLBW 240540Z 31014G19KT 16/13 A2997 RMK A01 T01610132  RH  087%=      5-min Rain = 0
KLBW 240545Z 30013KT 16/13 A2997 RMK A01 T01610134  RH  088%=      5-min Rain = 0.01
KLBW 240550Z 32012G17KT 16/14 A2997 RMK A01 T01600138  RH  091%=      5-min Rain = 0
KLBW 240555Z 32008G14KT 16/14 A2997 RMK A01 T01590141  RH  093%=      5-min Rain = 0.01
KLBW 240600Z 34007KT 16/14 A2997 RMK A01 T01580143  RH  094%=      5-min Rain = 0.03
KLBW 240605Z 34006KT 16/14 A2997 RMK A01 T01580144  RH  095%=      5-min Rain = 0
KLBW 240610Z 01006KT 16/15 A2997 RMK A01 T01580145  RH  096%=      5-min Rain = 0.01
KLBW 240615Z 01005KT 16/15 A2997 RMK A01 T01590146  RH  096%=      5-min Rain = 0
KLBW 240620Z 02005KT 16/15 A2997 RMK A01 T01600147  RH  096%=      5-min Rain = 0.02
KLBW 240625Z 02006KT 16/15 A2996 RMK A01 T01600149  RH  097%=      5-min Rain = 0.01
KLBW 240630Z 03005KT 16/15 A2996 RMK A01 T01600149  RH  098%=      5-min Rain = 0
KLBW 240635Z 03005KT 16/15 A2996 RMK A01 T01610150  RH  098%=      5-min Rain = 0
KLBW 240640Z 01006KT 16/15 A2996 RMK A01 T01620151  RH  098%=      5-min Rain = 0.01
KLBW 240645Z 33005KT 16/15 A2998 RMK A01 T01610150  RH  097%=      5-min Rain = 0.01
KLBW 240650Z 32007G12KT 16/15 A2999 RMK A01 T01610152  RH  099%=      5-min Rain = 0.06
KLBW 240655Z 32009KT 16/15 A2998 RMK A01 T01600153  RH  100%=      5-min Rain = 0.01
KLBW 240700Z 31007KT 16/15 A2998 RMK A01 T01580151  RH  100%=      5-min Rain = 0.04
KLBW 240705Z 32004G9KT 16/15 A2997 RMK A01 T01550148  RH  100%=      5-min Rain = 0.03
KLBW 240710Z 24002KT 15/15 A2998 RMK A01 T01530146  RH  100%=      5-min Rain = 0.04
KLBW 240715Z 29002KT 15/15 A2998 RMK A01 T01530146  RH  100%=      5-min Rain = 0.06
KLBW 240720Z 08003KT 15/15 A2997 RMK A01 T01530146  RH  100%=      5-min Rain = 0.06
KLBW 240725Z 09004KT 15/15 A2996 RMK A01 T01520145  RH  100%=      5-min Rain = 0.01
KLBW 240730Z 10004KT 15/14 A2995 RMK A01 T01510144  RH  100%=      5-min Rain = 0
KLBW 240735Z 10004KT 15/14 A2995 RMK A01 T01500144  RH  100%=      5-min Rain = 0.01
KLBW 240740Z 10006KT 15/15 A2995 RMK A01 T01520145  RH  100%=      5-min Rain = 0
KLBW 240745Z 10005KT 15/15 A2994 RMK A01 T01510145  RH  100%=      5-min Rain = 0
KLBW 240750Z 10004KT 15/15 A2994 RMK A01 T01530146  RH  100%=      5-min Rain = 0
KLBW 240755Z 11006KT 15/15 A2995 RMK A01 T01540147  RH  100%=      5-min Rain = 0
KLBW 240800Z 11004KT 16/15 A2995 RMK A01 T01550148  RH  100%=      5-min Rain = 0
KLBW 240805Z 12004KT 16/15 A2995 RMK A01 T01550149  RH  100%=      5-min Rain = 0
KLBW 240810Z 13003KT 16/15 A2995 RMK A01 T01560149  RH  100%=      5-min Rain = 0
KLBW 240815Z 12004KT 16/15 A2995 RMK A01 T01570151  RH  100%=      5-min Rain = 0
KLBW 240820Z 12004KT 16/15 A2995 RMK A01 T01580151  RH  100%=      5-min Rain = 0
KLBW 240825Z 14003KT 16/15 A2995 RMK A01 T01590152  RH  100%=      5-min Rain = 0
KLBW 240830Z 12005KT 16/15 A2994 RMK A01 T01600153  RH  100%=      5-min Rain = 0
KLBW 240835Z 12004KT 16/15 A2994 RMK A01 T01600153  RH  100%=      5-min Rain = 0.06
KLBW 240840Z 13005KT 16/15 A2995 RMK A01 T01590152  RH  100%=      5-min Rain = 0.01
KLBW 240845Z 13003KT 16/15 A2995 RMK A01 T01590152  RH  100%=      5-min Rain = 0
KLBW 240850Z 12005KT 16/15 A2994 RMK A01 T01600153  RH  100%=      5-min Rain = 0
KLBW 240855Z 11006KT 16/15 A2994 RMK A01 T01610154  RH  100%=      5-min Rain = 0
KLBW 240900Z 11005KT 16/15 A2994 RMK A01 T01600153  RH  100%=      5-min Rain = 0
KLBW 240905Z 04003KT 16/15 A2995 RMK A01 T01610154  RH  100%=      5-min Rain = 0
KLBW 240910Z 30006KT 16/16 A2996 RMK A01 T01620155  RH  100%=      5-min Rain = 0
KLBW 240915Z 29007KT 16/15 A2997 RMK A01 T01610154  RH  100%=      5-min Rain = 0
KLBW 240920Z 31003KT 16/15 A2997 RMK A01 T01600153  RH  100%=      5-min Rain = 0
KLBW 240925Z 02002KT 16/15 A2996 RMK A01 T01610154  RH  100%=      5-min Rain = 0
KLBW 240930Z 04002KT 16/16 A2996 RMK A01 T01620155  RH  100%=      5-min Rain = 0
KLBW 240935Z 12003KT 16/16 A2996 RMK A01 T01630155  RH  100%=      5-min Rain = 0
KLBW 240940Z 10005KT 16/16 A2996 RMK A01 T01630156  RH  100%=      5-min Rain = 0
KLBW 240945Z 09003KT 16/16 A2996 RMK A01 T01630156  RH  100%=      5-min Rain = 0
KLBW 240950Z 10004KT 16/16 A2996 RMK A01 T01640156  RH  100%=      5-min Rain = 0
KLBW 240955Z 10005KT 16/16 A2996 RMK A01 T01630156  RH  100%=      5-min Rain = 0
KLBW 241000Z 09004KT 16/16 A2996 RMK A01 T01640156  RH  100%=      5-min Rain = 0
KLBW 241005Z 12004KT 16/16 A2996 RMK A01 T01640157  RH  100%=      5-min Rain = 0
KLBW 241010Z 11005KT 16/16 A2996 RMK A01 T01640157  RH  100%=      5-min Rain = 0
KLBW 241015Z 11006KT 16/16 A2996 RMK A01 T01640157  RH  100%=      5-min Rain = 0
KLBW 241020Z 12004KT 16/16 A2996 RMK A01 T01640157  RH  100%=      5-min Rain = 0
KLBW 241025Z 13003KT 17/16 A2996 RMK A01 T01650158  RH  100%=      5-min Rain = 0
KLBW 241030Z 11002KT 17/16 A2996 RMK A01 T01650158  RH  100%=      5-min Rain = 0
KLBW 241035Z 10004KT 17/16 A2996 RMK A01 T01650158  RH  100%=      5-min Rain = 0
KLBW 241040Z 09005KT 16/16 A2996 RMK A01 T01640157  RH  100%=      5-min Rain = 0
KLBW 241045Z 10005KT 16/16 A2996 RMK A01 T01630156  RH  100%=      5-min Rain = 0
KLBW 241050Z 11005KT 16/16 A2996 RMK A01 T01630155  RH  100%=      5-min Rain = 0
KLBW 241055Z 12004KT 16/16 A2996 RMK A01 T01630156  RH  100%=      5-min Rain = 0
KLBW 241100Z 11005KT 16/16 A2996 RMK A01 T01630156  RH  100%=      5-min Rain = 0
KLBW 241105Z 10003KT 16/16 A2996 RMK A01 T01630156  RH  100%=      5-min Rain = 0
KLBW 241110Z 11003KT 16/16 A2996 RMK A01 T01640157  RH  100%=      5-min Rain = 0
KLBW 241115Z 10004KT 16/16 A2996 RMK A01 T01640157  RH  100%=      5-min Rain = 0
KLBW 241120Z 10003KT 16/16 A2996 RMK A01 T01640156  RH  100%=      5-min Rain = 0
KLBW 241125Z 09004KT 16/16 A2996 RMK A01 T01630156  RH  100%=      5-min Rain = 0
KLBW 241130Z 08005KT 16/16 A2996 RMK A01 T01640156  RH  100%=      5-min Rain = 0
KLBW 241135Z 09005KT 16/16 A2996 RMK A01 T01640157  RH  100%=      5-min Rain = 0
KLBW 241140Z 08003KT 17/16 A2996 RMK A01 T01650157  RH  100%=      5-min Rain = 0
KLBW 241145Z 06003KT 17/16 A2996 RMK A01 T01650158  RH  100%=      5-min Rain = 0
KLBW 241150Z 06001KT 17/16 A2996 RMK A01 T01670159  RH  100%=      5-min Rain = 0
KLBW 241155Z 05002KT 17/16 A2997 RMK A01 T01670160  RH  100%=      5-min Rain = 0
KLBW 241200Z 05003KT 17/16 A2997 RMK A01 T01680161  RH  100%=      5-min Rain = 0
KLBW 241205Z 07004KT 17/16 A2997 RMK A01 T01690161  RH  100%=      5-min Rain = 0
KLBW 241210Z 07004KT 17/16 A2997 RMK A01 T01710163  RH  100%=      5-min Rain = 0
KLBW 241215Z 08003KT 17/17 A2997 RMK A01 T01720165  RH  100%=      5-min Rain = 0
KLBW 241220Z 09003KT 17/17 A2997 RMK A01 T01740166  RH  100%=      5-min Rain = 0
KLBW 241225Z 08004KT 17/17 A2997 RMK A01 T01740165  RH  099%=      5-min Rain = 0
KLBW 241230Z 08004KT 18/16 A2997 RMK A01 T01750162  RH  097%=      5-min Rain = 0
KLBW 241235Z 07004KT 18/16 A2997 RMK A01 T01770161  RH  095%=      5-min Rain = 0
KLBW 241240Z 08004KT 18/16 A2997 RMK A01 T01780161  RH  094%=      5-min Rain = 0
KLBW 241245Z 09004KT 18/16 A2997 RMK A01 T01780161  RH  094%=      5-min Rain = 0
KLBW 241250Z 09004KT 18/16 A2997 RMK A01 T01790161  RH  093%=      5-min Rain = 0
KLBW 241255Z 09006KT 18/16 A2996 RMK A01 T01810159  RH  091%=      5-min Rain = 0
KLBW 241300Z 09006KT 18/16 A2997 RMK A01 T01810158  RH  090%=      5-min Rain = 0
KLBW 241305Z 09007KT 18/16 A2997 RMK A01 T01820158  RH  090%=      5-min Rain = 0
KLBW 241310Z 10006KT 18/16 A2997 RMK A01 T01820159  RH  090%=      5-min Rain = 0
KLBW 241315Z 09006KT 18/16 A2997 RMK A01 T01830159  RH  090%=      5-min Rain = 0
KLBW 241320Z 10005KT 18/16 A2998 RMK A01 T01840160  RH  090%=      5-min Rain = 0
KLBW 241325Z 10005KT 18/16 A2998 RMK A01 T01840161  RH  091%=      5-min Rain = 0
KLBW 241330Z 10006KT 19/16 A2998 RMK A01 T01850162  RH  091%=      5-min Rain = 0
KLBW 241335Z 10006KT 19/17 A2998 RMK A01 T01870165  RH  091%=      5-min Rain = 0
KLBW 241340Z 11007KT 19/17 A2998 RMK A01 T01890166  RH  091%=      5-min Rain = 0
KLBW 241345Z 11007KT 19/17 A2998 RMK A01 T01890166  RH  091%=      5-min Rain = 0
KLBW 241350Z 10006KT 19/17 A2998 RMK A01 T01910168  RH  091%=      5-min Rain = 0
KLBW 241355Z 12006KT 19/17 A2998 RMK A01 T01930170  RH  091%=      5-min Rain = 0
KLBW 241400Z 12005KT 20/17 A2998 RMK A01 T01950172  RH  091%=      5-min Rain = 0
KLBW 241405Z 11006KT 20/17 A2997 RMK A01 T01960174  RH  092%=      5-min Rain = 0
KLBW 241410Z 11007KT 20/18 A2997 RMK A01 T01970176  RH  092%=      5-min Rain = 0
KLBW 241415Z 11007KT 20/18 A2997 RMK A01 T01970177  RH  093%=      5-min Rain = 0
KLBW 241420Z 12006KT 20/18 A2998 RMK A01 T01980180  RH  094%=      5-min Rain = 0
KLBW 241425Z 13007KT 20/18 A2998 RMK A01 T02010184  RH  095%=      5-min Rain = 0
KLBW 241430Z 13007G12KT 20/18 A2998 RMK A01 T02020184  RH  095%=      5-min Rain = 0
KLBW 241435Z 13007KT 20/19 A2998 RMK A01 T02030186  RH  095%=      5-min Rain = 0
KLBW 241440Z 13007KT 20/19 A2998 RMK A01 T02020186  RH  096%=      5-min Rain = 0
KLBW 241445Z 14006KT 20/19 A2998 RMK A01 T02020189  RH  097%=      5-min Rain = 0
KLBW 241450Z 14006KT 20/19 A2998 RMK A01 T02040191  RH  098%=      5-min Rain = 0
KLBW 241455Z 14007KT 21/19 A2998 RMK A01 T02050193  RH  098%=      5-min Rain = 0
KLBW 241500Z 14007KT 21/19 A2998 RMK A01 T02060194  RH  098%=      5-min Rain = 0
KLBW 241505Z 15007KT 21/20 A2998 RMK A01 T02100197  RH  098%=      5-min Rain = 0
KLBW 241510Z 15007KT 21/20 A2998 RMK A01 T02100196  RH  097%=      5-min Rain = 0
KLBW 241515Z 15008KT 21/20 A2998 RMK A01 T02120197  RH  097%=      5-min Rain = 0
KLBW 241520Z 15008G13KT 21/20 A2998 RMK A01 T02130197  RH  096%=      5-min Rain = 0
KLBW 241525Z 14008KT 22/20 A2998 RMK A01 T02170200  RH  095%=      5-min Rain = 0
KLBW 241530Z 15008G14KT 22/20 A2998 RMK A01 T02170198  RH  094%=      5-min Rain = 0
KLBW 241535Z 15008KT 22/20 A2999 RMK A01 T02150198  RH  095%=      5-min Rain = 0
KLBW 241540Z 15008KT 22/20 A2999 RMK A01 T02150199  RH  095%=      5-min Rain = 0
KLBW 241545Z 15007KT 22/20 A2999 RMK A01 T02170200  RH  095%=      5-min Rain = 0
KLBW 241550Z 16008G14KT 22/20 A2999 RMK A01 T02220203  RH  095%=      5-min Rain = 0
KLBW 241555Z 16009KT 23/20 A2998 RMK A01 T02250201  RH  092%=      5-min Rain = 0
KLBW 241600Z 15008KT 23/20 A2998 RMK A01 T02290203  RH  091%=      5-min Rain = 0
KLBW 241605Z 16009KT 23/20 A2998 RMK A01 T02300202  RH  089%=      5-min Rain = 0
KLBW 241610Z 16008G13KT 23/20 A2998 RMK A01 T02300202  RH  089%=      5-min Rain = 0
KLBW 241615Z 17007KT 24/21 A2998 RMK A01 T02370205  RH  087%=      5-min Rain = 0
KLBW 241620Z 17009KT 24/20 A2998 RMK A01 T02390203  RH  086%=      5-min Rain = 0
KLBW 241625Z 16009KT 24/20 A2998 RMK A01 T02420203  RH  083%=      5-min Rain = 0
KLBW 241630Z 17010KT 24/20 A2998 RMK A01 T02420201  RH  083%=      5-min Rain = 0
KLBW 241635Z 18010KT 24/20 A2998 RMK A01 T02390199  RH  083%=      5-min Rain = 0
KLBW 241640Z 17008KT 24/20 A2999 RMK A01 T02420202  RH  083%=      5-min Rain = 0
KLBW 241645Z 18009KT 25/20 A2999 RMK A01 T02490203  RH  081%=      5-min Rain = 0
KLBW 241650Z 18009G14KT 25/20 A2998 RMK A01 T02510201  RH  078%=      5-min Rain = 0.01
KLBW 241655Z 17008KT 25/20 A2998 RMK A01 T02510197  RH  076%=      5-min Rain = 0
KLBW 241700Z 16006G11KT 25/20 A2998 RMK A01 T02510201  RH  078%=      5-min Rain = 0
KLBW 241705Z 16008KT 25/20 A2998 RMK A01 T02520197  RH  076%=      5-min Rain = 0
KLBW 241710Z 16006KT 25/20 A2998 RMK A01 T02480197  RH  078%=      5-min Rain = 0
KLBW 241715Z 14005KT 25/20 A2997 RMK A01 T02490196  RH  076%=      5-min Rain = 0
KLBW 241720Z 13004KT 25/20 A2997 RMK A01 T02450196  RH  078%=      5-min Rain = 0
KLBW 241725Z 13007KT 24/20 A2998 RMK A01 T02400197  RH  082%=      5-min Rain = 0
KLBW 241730Z 13003KT 24/20 A2997 RMK A01 T02380197  RH  082%=      5-min Rain = 0
KLBW 241735Z 13005KT 24/20 A2996 RMK A01 T02380198  RH  083%=      5-min Rain = 0
KLBW 241740Z 12008KT 24/20 A2996 RMK A01 T02350198  RH  085%=      5-min Rain = 0
KLBW 241745Z 13005KT 23/20 A2996 RMK A01 T02320199  RH  087%=      5-min Rain = 0.02
KLBW 241750Z 11006KT 23/20 A2997 RMK A01 T02260203  RH  092%=      5-min Rain = 0.06
KLBW 241755Z 12007G13KT 22/20 A2997 RMK A01 T02190203  RH  096%=      5-min Rain = 0.04
KLBW 241800Z 20008G15KT 21/19 A2999 RMK A01 T02070194  RH  098%=      5-min Rain = 0.2
KLBW 241805Z 01003KT 19/18 A2997 RMK A01 T01920183  RH  100%=      5-min Rain = 0.02
KLBW 241810Z 09005KT 20/19 A2996 RMK A01 T01960187  RH  100%=      5-min Rain = 0
KLBW 241815Z 06004KT 20/19 A2996 RMK A01 T01970188  RH  100%=      5-min Rain = 0.01
KLBW 241820Z 02003KT 19/19 A2996 RMK A01 T01940185  RH  100%=      5-min Rain = 0
KLBW 241825Z 04003KT 19/18 A2996 RMK A01 T01920184  RH  100%=      5-min Rain = 0.04
KLBW 241830Z 34004KT 19/18 A2994 RMK A01 T01900182  RH  100%=      5-min Rain = 0
KLBW 241835Z 33005KT 19/18 A2994 RMK A01 T01910183  RH  100%=      5-min Rain = 0
KLBW 241840Z 35006KT 19/18 A2995 RMK A01 T01890181  RH  100%=      5-min Rain = 0
KLBW 241845Z 36006KT 19/18 A2995 RMK A01 T01850177  RH  100%=      5-min Rain = 0.01
KLBW 241850Z 02002KT 18/18 A2996 RMK A01 T01840176  RH  100%=      5-min Rain = 0.02
KLBW 241855Z 07003KT 19/18 A2996 RMK A01 T01860178  RH  100%=      5-min Rain = 0.03
KLBW 241900Z 07007KT 19/18 A2995 RMK A01 T01860178  RH  100%=      5-min Rain = 0.02
KLBW 241905Z 08007KT 18/18 A2997 RMK A01 T01840176  RH  100%=      5-min Rain = 0.03
KLBW 241910Z 03005KT 18/17 A2996 RMK A01 T01820174  RH  100%=      5-min Rain = 0.04
KLBW 241915Z 19002KT 18/17 A2996 RMK A01 T01820174  RH  100%=      5-min Rain = 0.07
KLBW 241920Z 18005KT 18/17 A2996 RMK A01 T01820174  RH  100%=      5-min Rain = 0.12
KLBW 241925Z 10004KT 18/17 A2994 RMK A01 T01810173  RH  100%=      5-min Rain = 0.08
KLBW 241930Z 29004KT 18/17 A2995 RMK A01 T01810173  RH  100%=      5-min Rain = 0.03
KLBW 241935Z 29006KT 18/17 A2997 RMK A01 T01820174  RH  100%=      5-min Rain = 0.07
KLBW 241940Z 29003KT 18/17 A2995 RMK A01 T01820174  RH  100%=      5-min Rain = 0
KLBW 241945Z 33004KT 18/18 A2992 RMK A01 T01830175  RH  100%=      5-min Rain = 0.01
KLBW 241950Z 13004KT 18/18 A2993 RMK A01 T01830175  RH  100%=      5-min Rain = 0.01
KLBW 241955Z 05003KT 18/18 A2992 RMK A01 T01840175  RH  100%=      5-min Rain = 0
KLBW 242000Z 02004KT 18/18 A2991 RMK A01 T01840176  RH  100%=      5-min Rain = 0
KLBW 242005Z 00001KT 18/18 A2992 RMK A01 T01840176  RH  100%=      5-min Rain = 0
KLBW 242010Z 01001KT 19/18 A2993 RMK A01 T01860178  RH  100%=      5-min Rain = 0
KLBW 242015Z 07005KT 19/18 A2993 RMK A01 T01870179  RH  100%=      5-min Rain = 0
KLBW 242020Z 06006KT 19/18 A2991 RMK A01 T01880180  RH  100%=      5-min Rain = 0
KLBW 242025Z 05005KT 18/17 A2991 RMK A01 T01790171  RH  100%=      5-min Rain = 0
KLBW 242030Z 02005KT 17/17 A2991 RMK A01 T01740167  RH  100%=      5-min Rain = 0
KLBW 242035Z 00004KT 18/17 A2991 RMK A01 T01760168  RH  100%=      5-min Rain = 0
KLBW 242040Z 05003KT 18/17 A299 RMK A01 T01770169  RH  100%=      5-min Rain = 0
KLBW 242045Z 12007KT 18/17 A2992 RMK A01 T01780170  RH  100%=      5-min Rain = 0.01
KLBW 242050Z 09008G17KT 17/16 A2992 RMK A01 T01710164  RH  100%=      5-min Rain = 0
KLBW 242055Z 06008KT 16/16 A2991 RMK A01 T01630155  RH  100%=      5-min Rain = 0
KLBW 242100Z 03006KT 16/16 A299 RMK A01 T01640156  RH  100%=      5-min Rain = 0
KLBW 242105Z 09007G12KT 17/16 A2991 RMK A01 T01670160  RH  100%=      5-min Rain = 0
KLBW 242110Z 14010KT 17/16 A2994 RMK A01 T01660159  RH  100%=      5-min Rain = 0
KLBW 242115Z 07005KT 17/16 A2992 RMK A01 T01650158  RH  100%=      5-min Rain = 0
KLBW 242120Z 06006KT 17/16 A2991 RMK A01 T01690162  RH  100%=      5-min Rain = 0
KLBW 242125Z 05003KT 18/17 A299 RMK A01 T01750167  RH  100%=      5-min Rain = 0
KLBW 242130Z 10003KT 18/17 A299 RMK A01 T01800172  RH  100%=      5-min Rain = 0
KLBW 242135Z 13006KT 18/17 A299 RMK A01 T01790171  RH  100%=      5-min Rain = 0
KLBW 242140Z 10006KT 18/17 A2989 RMK A01 T01770169  RH  100%=      5-min Rain = 0.05
KLBW 242145Z 05005KT 18/17 A2988 RMK A01 T01760168  RH  100%=      5-min Rain = 0.01
KLBW 242150Z 10004KT 18/17 A2989 RMK A01 T01770169  RH  100%=      5-min Rain = 0.1
KLBW 242155Z 13006KT 18/17 A2989 RMK A01 T01750167  RH  100%=      5-min Rain = 0.08
KLBW 242200Z 18007G12KT 18/17 A2991 RMK A01 T01750167  RH  100%=      5-min Rain = 0.12
KLBW 242205Z 24005G11KT 18/17 A2992 RMK A01 T01760169  RH  100%=      5-min Rain = 0.13
KLBW 242210Z 05007KT 18/17 A2989 RMK A01 T01770169  RH  100%=      5-min Rain = 0.01
KLBW 242215Z 04004KT 18/17 A299 RMK A01 T01770169  RH  100%=      5-min Rain = 0
KLBW 242220Z 02005KT 18/17 A2989 RMK A01 T01770169  RH  100%=      5-min Rain = 0
KLBW 242225Z 33006KT 18/17 A2989 RMK A01 T01760169  RH  100%=      5-min Rain = 0
KLBW 242230Z 35004KT 18/17 A2988 RMK A01 T01780170  RH  100%=      5-min Rain = 0
KLBW 242235Z 05005KT 18/17 A2987 RMK A01 T01780170  RH  100%=      5-min Rain = 0
KLBW 242240Z 06004KT 18/17 A2987 RMK A01 T01780170  RH  100%=      5-min Rain = 0
KLBW 242245Z 34003KT 18/17 A2988 RMK A01 T01790171  RH  100%=      5-min Rain = 0
KLBW 242250Z 33008KT 18/17 A2989 RMK A01 T01780171  RH  100%=      5-min Rain = 0
KLBW 242255Z 34006KT 18/17 A2989 RMK A01 T01780170  RH  100%=      5-min Rain = 0
KLBW 242300Z 04007KT 18/17 A2989 RMK A01 T01760168  RH  100%=      5-min Rain = 0
KLBW 242305Z 08006KT 18/17 A2988 RMK A01 T01790171  RH  100%=      5-min Rain = 0
KLBW 242310Z 05005KT 18/17 A2988 RMK A01 T01800172  RH  100%=      5-min Rain = 0
KLBW 242315Z 09005KT 18/17 A2988 RMK A01 T01790171  RH  100%=      5-min Rain = 0
KLBW 242320Z 10005KT 18/17 A2988 RMK A01 T01780171  RH  100%=      5-min Rain = 0
KLBW 242325Z 03006KT 18/17 A2987 RMK A01 T01790171  RH  100%=      5-min Rain = 0
KLBW 242330Z 06006KT 18/17 A2987 RMK A01 T01780170  RH  100%=      5-min Rain = 0.01
KLBW 242335Z 04006KT 18/17 A2987 RMK A01 T01760169  RH  100%=      5-min Rain = 0.01
KLBW 242340Z 03007KT 18/17 A2986 RMK A01 T01760168  RH  100%=      5-min Rain = 0.07
KLBW 242345Z 14007G12KT 18/17 A2991 RMK A01 T01750167  RH  100%=      5-min Rain = 0.04
KLBW 242350Z 02006KT 17/17 A299 RMK A01 T01740167  RH  100%=      5-min Rain = 0.01
KLBW 242355Z 04007KT 17/17 A2988 RMK A01 T01730166  RH  100%=      5-min Rain = 0
KLBW 250000Z 11011KT 17/17 A2989 RMK A01 T01730165  RH  100%=      5-min Rain = 0
KLBW 250005Z 04007G12KT 17/17 A2986 RMK A01 T01730165  RH  100%=      5-min Rain = 0
KLBW 250010Z 10007KT 17/17 A2987 RMK A01 T01720165  RH  100%=      5-min Rain = 0
KLBW 250015Z 04008KT 17/17 A2987 RMK A01 T01720165  RH  100%=      5-min Rain = 0
KLBW 250020Z 06006G11KT 17/17 A2988 RMK A01 T01730165  RH  100%=      5-min Rain = 0
KLBW 250025Z 06006G11KT 17/17 A299 RMK A01 T01730165  RH  100%=      5-min Rain = 0
KLBW 250030Z 06008KT 17/17 A299 RMK A01 T01730165  RH  100%=      5-min Rain = 0
KLBW 250035Z 00010G17KT 17/17 A299 RMK A01 T01730166  RH  100%=      5-min Rain = 0
KLBW 250040Z 01009G14KT 17/17 A299 RMK A01 T01730166  RH  100%=      5-min Rain = 0
KLBW 250045Z 06008KT 18/17 A2989 RMK A01 T01760168  RH  100%=      5-min Rain = 0
KLBW 250050Z 05009G15KT 18/17 A2989 RMK A01 T01750167  RH  100%=      5-min Rain = 0
KLBW 250055Z 06014G21KT 17/16 A299 RMK A01 T01690162  RH  100%=      5-min Rain = 0
KLBW 250100Z 07013G18KT 17/16 A2989 RMK A01 T01650157  RH  100%=      5-min Rain = 0
KLBW 250105Z 09010KT 17/16 A2991 RMK A01 T01650158  RH  100%=      5-min Rain = 0
KLBW 250110Z 06011G17KT 17/16 A2991 RMK A01 T01700162  RH  100%=      5-min Rain = 0
KLBW 250115Z 09009G15KT 17/16 A2992 RMK A01 T01710163  RH  100%=      5-min Rain = 0
KLBW 250120Z 09005KT 17/17 A2993 RMK A01 T01730165  RH  100%=      5-min Rain = 0
KLBW 250125Z 09006KT 17/17 A2993 RMK A01 T01740166  RH  100%=      5-min Rain = 0
KLBW 250130Z 08008KT 18/17 A2993 RMK A01 T01760168  RH  100%=      5-min Rain = 0
KLBW 250135Z 09008KT 18/17 A2993 RMK A01 T01780170  RH  100%=      5-min Rain = 0
KLBW 250140Z 10009KT 18/17 A2993 RMK A01 T01770169  RH  100%=      5-min Rain = 0
KLBW 250145Z 10007KT 18/17 A2993 RMK A01 T01790171  RH  100%=      5-min Rain = 0
KLBW 250150Z 10005KT 18/17 A2993 RMK A01 T01820174  RH  100%=      5-min Rain = 0
KLBW 250155Z 08005KT 19/18 A2994 RMK A01 T01850177  RH  100%=      5-min Rain = 0
KLBW 250200Z 02002KT 19/18 A2995 RMK A01 T01860178  RH  100%=      5-min Rain = 0
KLBW 250205Z 35002KT 18/18 A2995 RMK A01 T01840176  RH  100%=      5-min Rain = 0
KLBW 250210Z 26001KT 18/18 A2994 RMK A01 T01830175  RH  100%=      5-min Rain = 0
KLBW 250215Z 23001KT 18/17 A2993 RMK A01 T01800172  RH  100%=      5-min Rain = 0
KLBW 250220Z 16004KT 18/17 A2993 RMK A01 T01770169  RH  100%=      5-min Rain = 0
KLBW 250225Z 13008KT 18/17 A2993 RMK A01 T01780170  RH  100%=      5-min Rain = 0
KLBW 250230Z 12008KT 19/18 A2993 RMK A01 T01860178  RH  100%=      5-min Rain = 0
KLBW 250235Z 11008KT 19/18 A2992 RMK A01 T01880180  RH  100%=      5-min Rain = 0
KLBW 250240Z 12008KT 19/18 A2992 RMK A01 T01890181  RH  100%=      5-min Rain = 0
KLBW 250245Z 12008KT 19/18 A2992 RMK A01 T01890180  RH  099%=      5-min Rain = 0
KLBW 250250Z 12008KT 19/18 A2992 RMK A01 T01890179  RH  099%=      5-min Rain = 0
KLBW 250255Z 12007KT 19/18 A2992 RMK A01 T01880179  RH  100%=      5-min Rain = 0
KLBW 250300Z 12007KT 19/18 A2993 RMK A01 T01890180  RH  100%=      5-min Rain = 0
KLBW 250305Z 12005KT 19/18 A2993 RMK A01 T01910181  RH  099%=      5-min Rain = 0
KLBW 250310Z 10005KT 19/18 A2994 RMK A01 T01910182  RH  100%=      5-min Rain = 0
KLBW 250315Z 09005KT 19/18 A2995 RMK A01 T01940182  RH  098%=      5-min Rain = 0
KLBW 250320Z 06004KT 19/18 A2995 RMK A01 T01930182  RH  099%=      5-min Rain = 0
KLBW 250325Z 02005KT 19/18 A2996 RMK A01 T01900179  RH  098%=      5-min Rain = 0
KLBW 250330Z 01007KT 19/18 A2997 RMK A01 T01860177  RH  099%=      5-min Rain = 0
KLBW 250335Z 01007KT 18/17 A2998 RMK A01 T01800172  RH  100%=      5-min Rain = 0
KLBW 250340Z 01006KT 18/17 A2998 RMK A01 T01790171  RH  100%=      5-min Rain = 0
KLBW 250345Z 05005KT 18/17 A2998 RMK A01 T01820174  RH  100%=      5-min Rain = 0
KLBW 250350Z 06005KT 18/18 A2998 RMK A01 T01840176  RH  100%=      5-min Rain = 0
KLBW 250355Z 10003KT 19/18 A2998 RMK A01 T01850177  RH  100%=      5-min Rain = 0
KLBW 250400Z 08004KT 19/18 A2999 RMK A01 T01850177  RH  100%=      5-min Rain = 0
KLBW 250405Z 05002KT 19/18 A2999 RMK A01 T01850177  RH  100%=      5-min Rain = 0
KLBW 250410Z 02003KT 18/18 A2999 RMK A01 T01840176  RH  100%=      5-min Rain = 0
KLBW 250415Z 03004KT 18/17 A30 RMK A01 T01800172  RH  100%=      5-min Rain = 0
KLBW 250420Z 04004KT 18/17 A30 RMK A01 T01780171  RH  100%=      5-min Rain = 0
KLBW 250425Z 05003KT 18/17 A30 RMK A01 T01780170  RH  100%=      5-min Rain = 0
KLBW 250430Z 07004KT 18/17 A30 RMK A01 T01770169  RH  100%=      5-min Rain = 0
KLBW 250435Z 09004KT 18/17 A30 RMK A01 T01770169  RH  100%=      5-min Rain = 0
KLBW 250440Z 10004KT 18/17 A30 RMK A01 T01770169  RH  100%=      5-min Rain = 0
KLBW 250445Z 10004KT 18/17 A30 RMK A01 T01780170  RH  100%=      5-min Rain = 0
KLBW 250450Z 10005KT 18/17 A30 RMK A01 T01800172  RH  100%=      5-min Rain = 0
KLBW 250455Z 10006KT 18/17 A30 RMK A01 T01820174  RH  100%=      5-min Rain = 0

Page generated in 0.0299 seconds.